Time;durP1;ratioP1;P1;durP2;ratioP2;P2;SDS_P1;SDS_P2;PMS_P1;PMS_P2;Temp;Humidity;BMP_temperature;BMP_pressure;BME280_temperature;BME280_humidity;BME280_pressure;Samples;Min_cycle;Max_cycle;Signal;HPM_P1;HPM_P2
2021/12/22 00:02:10;;;;;;;3.28;1.65;;;18.50;54.40;;;;;;5033614;27;86844;-61
2021/12/22 00:04:43;;;;;;;5.25;2.17;;;18.50;54.40;;;;;;5032710;27;86796;-62
2021/12/22 00:07:09;;;;;;;3.85;1.83;;;18.50;54.40;;;;;;5032662;27;87019;-61
2021/12/22 00:09:35;;;;;;;4.22;1.70;;;18.50;54.40;;;;;;5031494;27;86421;-59
2021/12/22 00:12:00;;;;;;;2.95;1.90;;;18.50;54.50;;;;;;5032703;27;86189;-60
2021/12/22 00:14:26;;;;;;;4.22;1.83;;;18.50;54.50;;;;;;5032702;27;87392;-60
2021/12/22 00:16:52;;;;;;;3.00;1.90;;;18.40;54.50;;;;;;5032952;27;86408;-62
2021/12/22 00:19:20;;;;;;;2.63;2.05;;;18.50;54.50;;;;;;5031807;27;86655;-62
2021/12/22 00:21:46;;;;;;;2.63;1.70;;;18.40;54.50;;;;;;5032429;27;86924;-60
2021/12/22 00:24:12;;;;;;;3.20;2.00;;;18.40;54.50;;;;;;5032183;27;86963;-58
2021/12/22 00:26:37;;;;;;;4.88;2.22;;;18.40;54.50;;;;;;5031249;27;86416;-61
2021/12/22 00:29:05;;;;;;;4.57;1.92;;;18.40;54.50;;;;;;5032131;27;87165;-62
2021/12/22 00:31:38;;;;;;;3.22;2.05;;;18.30;54.50;;;;;;5033367;27;86496;-60
2021/12/22 00:34:05;;;;;;;3.65;2.03;;;18.40;54.50;;;;;;5030587;27;87527;-60
2021/12/22 00:36:31;;;;;;;4.20;1.85;;;18.30;54.50;;;;;;5033118;27;86722;-60
2021/12/22 00:41:22;;;;;;;3.92;2.20;;;18.30;54.50;;;;;;5030819;27;86530;-61
2021/12/22 00:43:48;;;;;;;3.13;1.80;;;18.30;54.50;;;;;;5030812;27;86811;-59
2021/12/22 00:46:13;;;;;;;5.18;2.50;;;18.30;54.60;;;;;;5032070;27;86588;-59
2021/12/22 00:48:40;;;;;;;2.85;1.70;;;18.30;54.60;;;;;;5033493;27;86294;-60
2021/12/22 00:51:06;;;;;;;2.55;1.77;;;18.20;54.60;;;;;;5031238;27;86845;-62
2021/12/22 00:53:32;;;;;;;3.13;1.95;;;18.20;54.60;;;;;;5032314;27;88929;-61
2021/12/22 00:55:58;;;;;;;3.70;1.80;;;18.20;54.60;;;;;;5032526;27;86698;-59
2021/12/22 00:58:24;;;;;;;3.58;2.25;;;18.20;55.10;;;;;;5032458;27;86784;-61
2021/12/22 01:00:50;;;;;;;3.13;2.00;;;18.20;54.60;;;;;;5032598;27;85851;-61
2021/12/22 01:03:17;;;;;;;4.18;1.88;;;18.20;54.60;;;;;;5032554;27;86903;-60
2021/12/22 01:05:43;;;;;;;3.55;2.17;;;18.20;54.70;;;;;;5032261;27;86440;-60
2021/12/22 01:08:08;;;;;;;3.22;2.00;;;18.10;54.70;;;;;;5032233;27;86416;-59
2021/12/22 01:10:35;;;;;;;3.60;2.10;;;18.10;54.70;;;;;;5032071;27;86168;-60
2021/12/22 01:13:04;;;;;;;4.38;2.63;;;18.10;54.70;;;;;;5032151;27;87006;-60
2021/12/22 01:15:31;;;;;;;3.75;1.67;;;18.10;54.80;;;;;;5032190;27;86322;-62
2021/12/22 01:18:02;;;;;;;4.50;2.05;;;18.10;54.80;;;;;;5031854;27;86366;-60
2021/12/22 01:20:33;;;;;;;4.40;2.10;;;18.10;54.80;;;;;;5031660;27;86357;-59
2021/12/22 01:23:05;;;;;;;3.90;1.92;;;18.10;54.80;;;;;;5030715;27;86977;-60
2021/12/22 01:25:36;;;;;;;3.15;2.05;;;18.10;54.90;;;;;;5030874;27;88287;-61
2021/12/22 01:28:03;;;;;;;3.40;1.92;;;18.10;54.90;;;;;;5031852;27;85868;-60
2021/12/22 01:30:31;;;;;;;5.18;2.17;;;18.10;54.90;;;;;;5031543;27;86308;-61
2021/12/22 01:33:01;;;;;;;3.50;1.80;;;18.00;54.90;;;;;;5031740;27;87061;-60
2021/12/22 01:35:30;;;;;;;3.30;2.05;;;18.00;54.90;;;;;;5029651;27;87945;-60
2021/12/22 01:37:58;;;;;;;4.07;1.90;;;18.00;54.90;;;;;;5029910;27;87215;-60
2021/12/22 01:40:25;;;;;;;3.67;2.00;;;18.00;55.00;;;;;;5031600;27;86895;-60
2021/12/22 01:42:54;;;;;;;3.22;2.13;;;18.00;55.00;;;;;;5031531;27;87187;-60
2021/12/22 01:51:08;;;;;;;6.32;2.40;;;18.00;55.10;;;;;;5031518;27;85769;-60
2021/12/22 01:53:46;;;;;;;4.00;2.20;;;17.90;55.00;;;;;;5030733;27;86409;-60
2021/12/22 01:58:43;;;;;;;2.53;1.83;;;17.90;55.00;;;;;;5030881;27;86365;-60
2021/12/22 02:01:10;;;;;;;2.75;1.85;;;17.90;55.00;;;;;;5031638;27;86851;-61
2021/12/22 02:03:38;;;;;;;2.88;1.83;;;17.90;55.00;;;;;;5031728;27;87014;-59
2021/12/22 02:06:05;;;;;;;3.92;1.83;;;17.90;55.00;;;;;;5031164;27;86051;-59
2021/12/22 02:08:32;;;;;;;3.85;1.98;;;17.90;55.00;;;;;;5029430;27;86337;-60
2021/12/22 02:10:58;;;;;;;2.65;1.92;;;17.80;55.00;;;;;;5030516;27;86873;-61
2021/12/22 02:13:30;;;;;;;3.60;2.10;;;17.80;55.00;;;;;;5031448;27;86773;-61
2021/12/22 02:15:55;;;;;;;4.20;2.15;;;17.90;55.10;;;;;;5031455;27;87070;-60
2021/12/22 02:18:25;;;;;;;2.35;1.73;;;17.80;55.10;;;;;;5034146;27;86535;-60
2021/12/22 02:20:51;;;;;;;2.88;2.15;;;17.80;55.10;;;;;;5031823;27;87177;-60
2021/12/22 02:23:17;;;;;;;3.83;1.77;;;17.80;55.10;;;;;;5033406;27;86684;-61
2021/12/22 02:25:51;;;;;;;5.20;2.53;;;17.80;55.10;;;;;;5034332;27;86974;-59
2021/12/22 02:28:22;;;;;;;9.00;2.40;;;17.70;55.10;;;;;;5034271;27;85853;-60
2021/12/22 02:30:51;;;;;;;3.33;1.98;;;17.80;55.10;;;;;;5033666;27;86939;-61
2021/12/22 02:33:36;;;;;;;2.53;2.00;;;17.70;55.10;;;;;;5033889;27;86294;-59
2021/12/22 02:38:35;;;;;;;4.57;2.22;;;17.70;55.20;;;;;;5033992;27;86750;-60
2021/12/22 02:41:02;;;;;;;3.05;1.80;;;17.70;55.20;;;;;;5034326;27;86199;-60
2021/12/22 02:43:32;;;;;;;4.13;2.10;;;17.70;55.20;;;;;;5033641;27;86072;-59
2021/12/22 02:45:58;;;;;;;2.90;1.90;;;17.70;55.20;;;;;;5033530;27;86657;-59
2021/12/22 02:48:28;;;;;;;3.63;1.73;;;17.70;55.20;;;;;;5034365;27;86225;-60
2021/12/22 02:50:56;;;;;;;4.03;2.15;;;17.70;55.20;;;;;;5034131;27;86872;-61
2021/12/22 02:53:29;;;;;;;4.10;2.00;;;17.60;55.20;;;;;;5032970;27;88690;-60
2021/12/22 02:56:04;;;;;;;4.53;2.10;;;17.60;55.20;;;;;;5033016;27;87111;-60
2021/12/22 02:58:44;;;;;;;3.55;1.83;;;17.60;55.20;;;;;;5033142;27;86964;-60
2021/12/22 03:01:54;;;;;;;3.50;2.00;;;17.60;55.20;;;;;;5033247;27;86490;-60
2021/12/22 03:04:25;;;;;;;3.30;2.20;;;17.60;55.20;;;;;;5033697;27;87809;-60
2021/12/22 03:07:05;;;;;;;3.75;1.80;;;17.60;55.20;;;;;;5034268;27;86448;-60
2021/12/22 03:09:33;;;;;;;3.33;2.00;;;17.60;55.30;;;;;;5032582;27;86578;-60
2021/12/22 03:12:04;;;;;;;5.10;1.90;;;17.60;55.30;;;;;;5032856;27;86476;-61
2021/12/22 03:14:30;;;;;;;2.67;1.70;;;17.60;55.30;;;;;;5033517;27;86727;-61
2021/12/22 03:16:57;;;;;;;2.55;1.83;;;17.60;55.30;;;;;;5033302;27;86696;-60
2021/12/22 03:19:28;;;;;;;3.97;2.20;;;17.50;55.30;;;;;;5032456;27;86956;-60
2021/12/22 03:22:01;;;;;;;3.13;1.80;;;17.50;55.30;;;;;;5032566;27;86526;-60
2021/12/22 03:24:28;;;;;;;3.38;1.63;;;17.50;55.30;;;;;;5033965;27;86652;-61
2021/12/22 03:26:55;;;;;;;4.32;2.10;;;17.50;55.30;;;;;;5032836;27;87020;-60
2021/12/22 03:29:21;;;;;;;2.83;2.00;;;17.50;55.30;;;;;;5032684;27;86186;-59
2021/12/22 03:31:47;;;;;;;4.13;1.95;;;17.50;55.40;;;;;;5033808;27;85780;-59
2021/12/22 03:34:14;;;;;;;3.15;2.30;;;17.50;55.40;;;;;;5030330;27;89863;-59
2021/12/22 03:36:42;;;;;;;2.65;1.88;;;17.50;55.40;;;;;;5032661;27;86593;-58
2021/12/22 03:39:10;;;;;;;2.92;2.05;;;17.50;55.40;;;;;;5032780;27;86439;-60
2021/12/22 03:41:35;;;;;;;2.85;1.67;;;17.50;55.40;;;;;;5033692;27;86406;-60
2021/12/22 03:44:05;;;;;;;3.88;2.28;;;17.40;55.40;;;;;;5033556;27;86862;-60
2021/12/22 03:46:30;;;;;;;3.58;1.85;;;17.40;55.40;;;;;;5033412;27;86566;-60
2021/12/22 03:48:58;;;;;;;3.90;2.13;;;17.40;55.40;;;;;;5033310;27;86205;-60
2021/12/22 03:51:30;;;;;;;2.45;1.88;;;17.40;55.40;;;;;;5033521;27;85818;-60
2021/12/22 03:53:55;;;;;;;3.50;2.33;;;17.40;55.40;;;;;;5032935;27;86807;-60
2021/12/22 03:56:21;;;;;;;2.97;2.00;;;17.40;55.40;;;;;;5033233;27;87344;-61
2021/12/22 03:58:47;;;;;;;5.32;1.75;;;17.40;55.40;;;;;;5030885;27;85866;-60
2021/12/22 04:01:14;;;;;;;5.13;2.30;;;17.40;55.40;;;;;;5031369;27;86335;-60
2021/12/22 04:03:45;;;;;;;3.60;2.20;;;17.40;55.40;;;;;;5031847;27;86869;-60
2021/12/22 04:06:11;;;;;;;3.90;2.30;;;17.30;55.40;;;;;;5032002;27;86407;-61
2021/12/22 04:08:36;;;;;;;2.45;2.03;;;17.30;55.40;;;;;;5030616;27;85780;-59
2021/12/22 04:11:02;;;;;;;3.30;1.80;;;17.40;55.50;;;;;;5032202;27;87086;-61
2021/12/22 04:13:30;;;;;;;3.13;2.10;;;17.30;55.40;;;;;;5031278;27;86800;-60
2021/12/22 04:15:56;;;;;;;3.72;1.95;;;17.30;55.40;;;;;;5030878;27;86006;-58
2021/12/22 04:18:24;;;;;;;3.58;2.20;;;17.30;55.40;;;;;;5032437;27;86420;-61
2021/12/22 04:20:49;;;;;;;4.90;2.25;;;17.30;55.40;;;;;;5032161;27;86885;-60
2021/12/22 04:23:16;;;;;;;4.63;1.77;;;17.30;55.40;;;;;;5032257;27;86179;-61
2021/12/22 04:25:42;;;;;;;3.47;2.20;;;17.30;55.40;;;;;;5032194;27;86446;-61
2021/12/22 04:28:09;;;;;;;2.60;1.73;;;17.30;55.40;;;;;;5032231;27;86941;-60
2021/12/22 04:30:42;;;;;;;3.80;2.22;;;17.30;55.40;;;;;;5031343;27;86781;-58
2021/12/22 04:33:08;;;;;;;4.13;2.30;;;17.20;55.40;;;;;;5032113;27;86386;-60
2021/12/22 04:35:34;;;;;;;2.10;1.77;;;17.20;55.40;;;;;;5032024;27;86345;-62
2021/12/22 04:38:01;;;;;;;3.53;2.17;;;17.20;55.40;;;;;;5032783;27;85784;-61
2021/12/22 04:40:27;;;;;;;4.60;2.30;;;17.20;55.40;;;;;;5031531;27;85605;-61
2021/12/22 04:42:53;;;;;;;4.50;2.17;;;17.20;55.40;;;;;;5031926;27;88292;-58
2021/12/22 04:45:19;;;;;;;4.15;2.08;;;17.20;55.40;;;;;;5032502;27;86729;-59
2021/12/22 04:47:45;;;;;;;5.20;2.50;;;17.20;55.40;;;;;;5031618;27;85749;-60
2021/12/22 04:50:16;;;;;;;3.33;1.60;;;17.20;55.40;;;;;;5031233;27;86417;-61
2021/12/22 04:52:54;;;;;;;3.15;2.00;;;17.20;55.40;;;;;;5031794;27;86327;-60
2021/12/22 04:55:21;;;;;;;3.95;2.10;;;17.10;55.40;;;;;;5032597;27;85751;-59
2021/12/22 04:57:47;;;;;;;6.10;2.38;;;17.20;55.40;;;;;;5032346;27;86127;-61
2021/12/22 05:00:14;;;;;;;3.72;2.03;;;17.20;55.40;;;;;;5031287;27;87187;-60
2021/12/22 05:02:40;;;;;;;2.83;1.70;;;17.10;55.30;;;;;;5031897;27;86774;-59
2021/12/22 05:05:09;;;;;;;3.30;2.30;;;17.10;55.30;;;;;;5032338;27;87464;-61
2021/12/22 05:07:35;;;;;;;2.35;1.90;;;17.10;55.30;;;;;;5032227;27;86486;-60
2021/12/22 05:10:01;;;;;;;4.20;2.38;;;17.10;55.40;;;;;;5032021;27;86720;-59
2021/12/22 05:12:26;;;;;;;3.45;2.20;;;17.10;55.40;;;;;;5031877;27;87239;-61
2021/12/22 05:14:52;;;;;;;3.17;2.10;;;17.10;55.50;;;;;;5031619;27;86879;-59
2021/12/22 05:17:28;;;;;;;3.28;1.98;;;17.10;55.40;;;;;;5032024;27;86123;-61
2021/12/22 05:19:56;;;;;;;2.90;2.10;;;17.10;55.40;;;;;;5030749;27;86982;-59
2021/12/22 05:22:22;;;;;;;4.78;2.30;;;17.00;55.30;;;;;;5030066;27;91071;-60
2021/12/22 05:24:48;;;;;;;6.10;2.38;;;17.00;55.30;;;;;;5031998;27;86474;-59
2021/12/22 05:27:13;;;;;;;3.33;1.80;;;17.00;55.30;;;;;;5030298;27;86372;-61
2021/12/22 05:29:39;;;;;;;4.32;2.30;;;17.00;55.30;;;;;;5030988;27;86770;-60
2021/12/22 05:32:06;;;;;;;3.53;1.77;;;17.00;55.30;;;;;;5030917;27;86058;-58
2021/12/22 05:34:32;;;;;;;3.28;1.88;;;17.00;55.30;;;;;;5031108;27;86450;-60
2021/12/22 05:36:59;;;;;;;4.32;2.15;;;17.00;55.40;;;;;;5032130;27;86781;-61
2021/12/22 05:39:25;;;;;;;2.63;1.73;;;17.00;55.30;;;;;;5031478;27;85969;-59
2021/12/22 05:41:50;;;;;;;3.72;2.25;;;17.00;55.30;;;;;;5029763;27;89695;-59
2021/12/22 05:44:16;;;;;;;4.85;2.47;;;17.00;55.30;;;;;;5031109;27;86941;-60
2021/12/22 05:46:41;;;;;;;4.32;2.15;;;17.00;55.40;;;;;;5031791;27;86155;-61
2021/12/22 05:49:07;;;;;;;4.40;2.30;;;17.00;55.30;;;;;;5030869;27;85691;-60
2021/12/22 05:51:34;;;;;;;3.50;2.00;;;16.90;55.30;;;;;;5030906;27;90900;-60
2021/12/22 05:54:00;;;;;;;3.75;2.28;;;16.90;55.30;;;;;;5034055;27;86887;-61
2021/12/22 05:56:28;;;;;;;2.47;1.85;;;16.90;55.30;;;;;;5034047;27;86515;-60
2021/12/22 05:58:54;;;;;;;3.05;2.05;;;16.90;55.30;;;;;;5034585;27;86489;-60
2021/12/22 06:01:19;;;;;;;3.75;2.10;;;16.90;55.30;;;;;;5034727;27;88067;-61
2021/12/22 06:03:45;;;;;;;5.05;2.10;;;16.90;55.30;;;;;;5035037;27;86372;-61
2021/12/22 06:06:11;;;;;;;2.78;2.03;;;16.90;55.30;;;;;;5034467;27;86286;-60
2021/12/22 06:08:37;;;;;;;2.63;1.88;;;16.90;55.30;;;;;;5032558;27;86937;-59
2021/12/22 06:11:05;;;;;;;3.53;2.08;;;16.90;55.30;;;;;;5034061;27;86444;-61
2021/12/22 06:13:30;;;;;;;3.17;2.08;;;16.90;55.30;;;;;;5034499;27;86167;-60
2021/12/22 06:15:56;;;;;;;3.17;1.83;;;16.80;55.20;;;;;;5033164;27;86166;-59
2021/12/22 06:18:22;;;;;;;3.78;2.05;;;16.80;55.20;;;;;;5034444;27;86859;-61
2021/12/22 06:20:47;;;;;;;4.38;2.33;;;16.80;55.20;;;;;;5034512;27;86885;-60
2021/12/22 06:23:13;;;;;;;3.55;2.10;;;16.80;55.20;;;;;;5034247;27;86516;-60
2021/12/22 06:25:39;;;;;;;3.33;2.22;;;16.80;55.30;;;;;;5033600;27;86580;-61
2021/12/22 06:28:05;;;;;;;2.95;2.05;;;16.80;55.20;;;;;;5034557;27;86416;-59
2021/12/22 06:30:31;;;;;;;3.38;2.15;;;16.80;55.20;;;;;;5032979;27;87181;-61
2021/12/22 06:32:57;;;;;;;2.63;1.80;;;16.80;55.20;;;;;;5033759;27;86527;-60
2021/12/22 06:35:23;;;;;;;3.53;2.30;;;16.80;55.20;;;;;;5032921;27;86118;-58
2021/12/22 06:37:51;;;;;;;4.97;2.20;;;16.80;55.20;;;;;;5032882;27;86201;-59
2021/12/22 06:40:16;;;;;;;3.10;2.03;;;16.80;55.20;;;;;;5032832;27;86312;-60
2021/12/22 06:42:43;;;;;;;3.00;2.00;;;16.80;55.20;;;;;;5032975;27;86864;-59
2021/12/22 06:45:11;;;;;;;4.25;2.10;;;16.80;55.20;;;;;;5033332;27;87330;-60
2021/12/22 06:47:37;;;;;;;3.50;2.08;;;16.80;55.20;;;;;;5033378;27;86434;-61
2021/12/22 06:50:04;;;;;;;3.17;2.00;;;16.80;55.20;;;;;;5033946;27;86472;-58
2021/12/22 06:52:30;;;;;;;3.63;2.05;;;16.80;55.20;;;;;;5034422;27;86766;-59
2021/12/22 06:54:56;;;;;;;3.28;2.15;;;16.70;55.20;;;;;;5033744;27;85833;-59
2021/12/22 06:57:22;;;;;;;4.25;2.30;;;16.70;55.20;;;;;;5033887;27;86889;-60
2021/12/22 06:59:48;;;;;;;4.70;2.20;;;16.70;55.20;;;;;;5033560;27;87313;-60
2021/12/22 07:02:17;;;;;;;2.85;2.25;;;16.70;55.20;;;;;;5033296;27;86501;-61
2021/12/22 07:04:43;;;;;;;4.07;1.80;;;16.70;55.20;;;;;;5033707;27;86413;-59
2021/12/22 07:07:08;;;;;;;3.80;2.17;;;16.70;55.20;;;;;;5034669;27;85775;-61
2021/12/22 07:09:34;;;;;;;5.38;1.92;;;16.70;55.20;;;;;;5033479;27;86912;-59
2021/12/22 07:12:00;;;;;;;4.07;2.15;;;16.70;55.10;;;;;;5033677;27;86687;-60
2021/12/22 07:14:26;;;;;;;4.22;2.30;;;16.80;55.10;;;;;;5032614;27;86327;-60
2021/12/22 07:16:51;;;;;;;3.70;2.10;;;16.80;55.20;;;;;;5033830;27;87066;-59
2021/12/22 07:19:17;;;;;;;3.88;2.40;;;16.80;55.20;;;;;;5032879;27;85973;-61
2021/12/22 07:21:44;;;;;;;3.17;2.17;;;16.90;55.20;;;;;;5032734;27;86547;-60
2021/12/22 07:24:10;;;;;;;4.35;2.20;;;17.00;55.20;;;;;;5034156;27;85812;-59
2021/12/22 07:26:38;;;;;;;4.45;2.15;;;17.10;55.20;;;;;;5033452;27;86700;-58
2021/12/22 07:29:04;;;;;;;8.10;2.22;;;17.10;55.10;;;;;;5032539;27;86589;-60
2021/12/22 07:31:30;;;;;;;3.00;2.20;;;17.30;55.00;;;;;;5032614;27;87776;-59
2021/12/22 07:34:22;;;;;;;4.10;2.05;;;17.40;54.90;;;;;;5032871;27;86636;-60
2021/12/22 07:37:02;;;;;;;2.88;2.00;;;17.50;54.80;;;;;;5030215;27;86433;-59
2021/12/22 07:39:28;;;;;;;6.35;2.30;;;17.60;54.70;;;;;;5032867;27;86873;-60
2021/12/22 07:41:54;;;;;;;3.08;2.00;;;17.70;54.60;;;;;;5032062;27;87053;-60
2021/12/22 07:44:20;;;;;;;4.75;2.55;;;17.80;54.40;;;;;;5032174;27;86405;-60
2021/12/22 07:46:45;;;;;;;5.25;2.20;;;17.80;54.20;;;;;;5031218;27;85778;-60
2021/12/22 07:49:11;;;;;;;5.30;2.75;;;17.90;54.20;;;;;;5032760;27;86933;-61
2021/12/22 07:51:37;;;;;;;6.50;2.50;;;18.00;54.10;;;;;;5031599;27;89498;-58
2021/12/22 07:54:04;;;;;;;3.83;2.33;;;18.10;54.00;;;;;;5033114;27;86478;-61
2021/12/22 07:56:29;;;;;;;6.28;2.63;;;18.20;53.80;;;;;;5032682;27;86687;-58
2021/12/22 07:58:55;;;;;;;209.48;26.38;;;18.20;53.60;;;;;;5031974;27;86993;-58
2021/12/22 08:01:21;;;;;;;135.65;18.58;;;18.30;53.60;;;;;;5031022;27;86015;-59
2021/12/22 08:03:47;;;;;;;68.07;13.50;;;18.30;53.60;;;;;;5031490;27;88107;-58
2021/12/22 08:06:14;;;;;;;45.67;9.02;;;18.30;53.50;;;;;;5030969;27;86359;-58
2021/12/22 08:08:40;;;;;;;47.65;8.98;;;18.40;53.30;;;;;;5032385;27;87096;-58
2021/12/22 08:11:06;;;;;;;32.75;6.22;;;18.40;53.10;;;;;;5031906;27;86433;-59
2021/12/22 08:13:32;;;;;;;31.25;6.25;;;18.30;52.90;;;;;;5030564;27;85863;-58
2021/12/22 08:15:58;;;;;;;27.63;6.68;;;18.30;52.70;;;;;;5031533;27;86497;-58
2021/12/22 08:18:27;;;;;;;27.80;6.03;;;18.30;52.50;;;;;;5031941;27;87523;-58
2021/12/22 08:20:53;;;;;;;29.90;5.72;;;18.30;52.40;;;;;;5031128;27;86389;-58
2021/12/22 08:23:21;;;;;;;21.38;6.10;;;18.40;52.30;;;;;;5031518;27;86650;-58
2021/12/22 08:25:47;;;;;;;23.15;6.03;;;18.40;52.20;;;;;;5030904;27;86146;-58
2021/12/22 08:28:13;;;;;;;23.35;5.95;;;18.40;52.00;;;;;;5031791;27;88168;-58
2021/12/22 08:30:39;;;;;;;23.88;5.32;;;18.50;51.90;;;;;;5031039;27;88252;-58
2021/12/22 08:33:09;;;;;;;19.15;5.18;;;18.50;51.80;;;;;;5030935;27;86452;-58
2021/12/22 08:38:50;;;;;;;16.58;5.15;;;18.50;51.60;;;;;;5029387;27;86628;-58
2021/12/22 08:41:06;;;;;;;17.23;5.47;;;18.50;52.00;;;;;;5029029;27;86802;-58
2021/12/22 08:43:32;;;;;;;24.80;5.18;;;18.60;52.30;;;;;;5030269;27;86386;-58
2021/12/22 08:45:58;;;;;;;17.08;5.68;;;18.50;52.30;;;;;;5023998;27;85882;-58
2021/12/22 08:48:23;;;;;;;20.55;4.90;;;18.60;52.40;;;;;;5031366;27;86792;-59
2021/12/22 08:50:49;;;;;;;17.80;5.10;;;18.60;52.60;;;;;;5030947;27;86085;-59
2021/12/22 08:53:14;;;;;;;16.05;5.38;;;18.60;52.60;;;;;;5032512;27;86558;-59
2021/12/22 08:55:40;;;;;;;13.35;5.03;;;18.60;52.80;;;;;;5031933;27;86797;-58
2021/12/22 08:58:06;;;;;;;17.00;5.40;;;18.60;52.90;;;;;;5031864;27;87139;-59
2021/12/22 09:00:33;;;;;;;13.18;4.15;;;18.70;52.90;;;;;;5031512;27;86718;-58
2021/12/22 09:02:59;;;;;;;15.30;4.72;;;18.70;52.80;;;;;;5032077;27;86316;-59
2021/12/22 09:05:25;;;;;;;15.02;4.50;;;18.80;52.70;;;;;;4953648;28;85895;-59
2021/12/22 09:07:51;;;;;;;18.35;5.22;;;18.90;52.60;;;;;;4991346;28;87057;-59
2021/12/22 09:10:17;;;;;;;14.45;4.68;;;18.90;52.40;;;;;;4990304;28;86997;-59
2021/12/22 09:12:42;;;;;;;11.32;4.75;;;19.00;52.20;;;;;;4990271;28;86420;-59
2021/12/22 09:15:08;;;;;;;16.60;5.13;;;19.00;52.00;;;;;;4987395;28;87670;-59
2021/12/22 09:17:34;;;;;;;12.23;4.28;;;19.10;51.80;;;;;;4990939;28;87159;-59
2021/12/22 09:20:00;;;;;;;14.05;4.95;;;19.10;51.60;;;;;;4991208;28;86216;-58
2021/12/22 09:22:26;;;;;;;12.65;5.07;;;19.10;51.50;;;;;;4991099;28;86831;-59
2021/12/22 09:24:52;;;;;;;14.90;4.90;;;19.10;51.40;;;;;;4990926;28;86756;-59
2021/12/22 09:27:18;;;;;;;13.82;4.30;;;19.10;51.20;;;;;;4991365;28;86761;-59
2021/12/22 09:29:44;;;;;;;12.95;4.88;;;19.10;51.20;;;;;;4990951;28;86336;-59
2021/12/22 09:32:14;;;;;;;8.32;5.03;;;19.10;51.20;;;;;;4991080;28;86557;-59
2021/12/22 09:34:41;;;;;;;8.60;4.45;;;19.10;51.10;;;;;;4991299;28;86812;-59
2021/12/22 09:37:07;;;;;;;10.77;4.50;;;19.10;51.10;;;;;;4991894;28;86394;-59
2021/12/22 09:39:32;;;;;;;13.82;4.90;;;19.10;51.00;;;;;;4991356;28;87002;-59
2021/12/22 09:41:58;;;;;;;6.30;4.15;;;19.10;50.60;;;;;;4991868;28;86118;-59
2021/12/22 09:44:30;;;;;;;11.80;4.63;;;19.10;50.10;;;;;;4991525;28;86397;-59
2021/12/22 09:46:59;;;;;;;14.90;4.97;;;19.10;50.10;;;;;;4989961;28;88472;-59
2021/12/22 09:52:16;;;;;;;11.80;4.70;;;19.20;49.70;;;;;;4989979;28;86546;-59
2021/12/22 09:54:42;;;;;;;11.50;4.65;;;19.20;49.70;;;;;;4990865;28;86542;-59
2021/12/22 09:57:08;;;;;;;8.98;5.20;;;19.20;49.50;;;;;;4990968;28;87049;-59
2021/12/22 09:59:35;;;;;;;10.70;4.55;;;19.20;49.50;;;;;;4990576;28;85931;-59
2021/12/22 10:02:01;;;;;;;9.27;4.55;;;19.20;49.40;;;;;;4990256;28;86701;-59
2021/12/22 10:04:27;;;;;;;10.30;4.63;;;19.20;49.30;;;;;;4990350;28;86886;-58
2021/12/22 10:06:53;;;;;;;12.77;4.88;;;19.20;49.20;;;;;;4990532;28;86644;-59
2021/12/22 10:09:24;;;;;;;11.38;5.20;;;19.20;49.10;;;;;;4990691;28;87156;-58
2021/12/22 10:11:50;;;;;;;10.20;5.18;;;19.20;49.10;;;;;;4986810;28;86718;-59
2021/12/22 10:14:26;;;;;;;8.38;4.70;;;19.20;48.90;;;;;;4991136;28;86959;-59
2021/12/22 10:16:54;;;;;;;12.20;5.05;;;19.20;48.70;;;;;;4990902;28;88182;-58
2021/12/22 10:19:23;;;;;;;10.93;4.75;;;19.20;48.60;;;;;;4990093;28;86966;-58
2021/12/22 10:22:03;;;;;;;10.93;5.05;;;19.20;48.60;;;;;;4989224;28;86657;-59
2021/12/22 10:24:43;;;;;;;13.27;4.65;;;19.30;48.50;;;;;;4989879;28;86464;-59
2021/12/22 10:27:22;;;;;;;10.23;5.22;;;19.30;48.40;;;;;;4990398;28;87206;-59
2021/12/22 10:29:48;;;;;;;13.48;5.35;;;19.30;48.30;;;;;;4990427;28;86915;-58
2021/12/22 10:32:16;;;;;;;9.10;4.82;;;19.40;48.10;;;;;;4990277;28;86943;-58
2021/12/22 10:35:01;;;;;;;11.63;5.47;;;19.40;48.00;;;;;;4990795;28;86353;-58
2021/12/22 10:37:41;;;;;;;13.05;5.25;;;19.40;48.00;;;;;;4990721;28;88186;-59
2021/12/22 10:40:28;;;;;;;11.32;5.22;;;19.40;48.00;;;;;;4994458;28;87474;-59
2021/12/22 10:42:54;;;;;;;9.65;5.10;;;19.40;47.90;;;;;;4992465;28;86283;-59
2021/12/22 10:45:25;;;;;;;13.77;5.35;;;19.40;48.00;;;;;;4992937;28;86374;-58
2021/12/22 10:50:36;;;;;;;8.68;4.90;;;19.40;48.00;;;;;;4992014;28;86852;-58
2021/12/22 10:53:03;;;;;;;17.15;5.40;;;19.40;48.10;;;;;;4993983;28;86859;-59
2021/12/22 10:55:47;;;;;;;16.35;5.90;;;19.40;48.10;;;;;;4993164;28;86908;-58
2021/12/22 10:58:19;;;;;;;11.30;5.07;;;19.40;48.20;;;;;;4993198;28;86926;-59
2021/12/22 11:00:58;;;;;;;14.70;5.88;;;19.40;48.20;;;;;;4993249;28;86432;-59
2021/12/22 11:03:34;;;;;;;12.68;5.47;;;19.40;48.20;;;;;;4992368;28;87483;-59
2021/12/22 11:06:01;;;;;;;17.58;5.38;;;19.50;48.30;;;;;;4993668;28;86679;-59
2021/12/22 11:08:27;;;;;;;11.55;5.75;;;19.50;48.30;;;;;;4993991;28;87356;-58
2021/12/22 11:10:53;;;;;;;12.63;5.22;;;19.50;48.40;;;;;;4993258;28;86279;-59
2021/12/22 11:13:24;;;;;;;12.77;5.90;;;19.50;48.40;;;;;;4993499;28;87035;-59
2021/12/22 11:15:51;;;;;;;18.13;6.18;;;19.50;48.40;;;;;;4993868;28;85922;-58
2021/12/22 11:18:28;;;;;;;9.77;5.47;;;19.50;48.50;;;;;;4993255;28;86862;-58
2021/12/22 11:21:21;;;;;;;11.10;5.18;;;19.50;48.50;;;;;;4993532;28;86849;-59
2021/12/22 11:23:47;;;;;;;14.07;4.90;;;19.50;48.50;;;;;;4988614;28;85847;-58
2021/12/22 11:26:13;;;;;;;18.65;6.18;;;19.50;48.60;;;;;;4991642;28;86767;-58
2021/12/22 11:28:42;;;;;;;15.48;5.80;;;19.50;48.60;;;;;;4991485;28;87190;-58
2021/12/22 11:31:09;;;;;;;12.98;5.75;;;19.50;48.60;;;;;;4991696;28;86351;-58
2021/12/22 11:33:35;;;;;;;13.82;5.70;;;19.50;48.60;;;;;;4990013;28;86177;-58
2021/12/22 11:36:03;;;;;;;18.13;6.10;;;19.50;48.70;;;;;;4990883;28;85838;-59
2021/12/22 11:38:30;;;;;;;13.45;5.22;;;19.50;48.70;;;;;;4992158;28;86782;-59
2021/12/22 11:41:10;;;;;;;13.32;5.50;;;19.50;48.80;;;;;;4992297;28;86677;-58
2021/12/22 11:43:40;;;;;;;14.88;6.28;;;19.50;48.80;;;;;;4992697;28;86429;-58
2021/12/22 11:46:06;;;;;;;14.77;5.47;;;19.50;48.80;;;;;;4991540;28;86275;-59
2021/12/22 11:48:33;;;;;;;14.75;6.40;;;19.60;48.90;;;;;;4991899;28;88866;-58
2021/12/22 11:51:00;;;;;;;13.90;5.50;;;19.50;48.80;;;;;;4992495;28;86667;-59
2021/12/22 11:53:25;;;;;;;11.90;5.28;;;19.50;48.80;;;;;;4992155;28;86352;-58
2021/12/22 11:55:55;;;;;;;16.42;5.93;;;19.50;48.80;;;;;;4993085;28;86705;-59
2021/12/22 11:58:41;;;;;;;13.45;5.00;;;19.60;48.90;;;;;;4992927;28;88128;-59
2021/12/22 12:01:10;;;;;;;13.77;5.13;;;19.50;48.80;;;;;;4990256;28;86885;-59
2021/12/22 12:03:44;;;;;;;16.48;6.03;;;19.50;48.90;;;;;;4987748;28;85824;-58
2021/12/22 12:06:11;;;;;;;16.38;5.50;;;19.50;49.00;;;;;;4992136;28;86923;-58
2021/12/22 12:08:41;;;;;;;17.02;6.30;;;19.50;49.00;;;;;;4987867;28;87432;-58
2021/12/22 12:11:09;;;;;;;12.95;5.50;;;19.50;49.20;;;;;;4991651;28;86472;-57
2021/12/22 12:22:34;;;;;;;15.10;5.70;;;19.60;50.00;;;;;;4991549;28;86141;-56
2021/12/22 12:25:06;;;;;;;13.77;5.65;;;19.70;51.20;;;;;;4993188;28;86643;-57
2021/12/22 12:27:33;;;;;;;13.20;5.40;;;19.70;52.50;;;;;;4992393;28;85862;-58
2021/12/22 12:30:14;;;;;;;15.70;4.93;;;19.70;50.60;;;;;;4991302;28;86906;-62
2021/12/22 12:32:40;;;;;;;15.57;5.75;;;19.80;50.30;;;;;;4991050;28;86360;-58
2021/12/22 12:35:17;;;;;;;16.95;6.70;;;19.80;50.90;;;;;;4991702;28;86573;-59
2021/12/22 12:37:56;;;;;;;13.73;6.20;;;19.80;50.70;;;;;;4992251;28;86287;-61
2021/12/22 12:40:22;;;;;;;15.10;6.00;;;19.80;50.50;;;;;;4991953;28;86860;-57
2021/12/22 12:43:00;;;;;;;17.10;5.93;;;19.80;50.50;;;;;;4992574;28;86885;-55
2021/12/22 12:45:46;;;;;;;12.50;6.07;;;19.80;51.10;;;;;;4992524;28;86631;-57
2021/12/22 12:48:28;;;;;;;13.52;6.13;;;19.80;52.10;;;;;;4992394;28;86906;-56
2021/12/22 12:51:13;;;;;;;12.98;5.30;;;19.90;52.50;;;;;;4992581;28;87005;-59
2021/12/22 12:53:48;;;;;;;14.23;5.60;;;19.90;51.20;;;;;;4992182;28;86509;-57
2021/12/22 12:56:16;;;;;;;13.63;5.22;;;19.90;50.80;;;;;;4991353;28;87065;-55
2021/12/22 12:58:55;;;;;;;15.02;5.28;;;19.90;51.50;;;;;;4990697;28;86253;-58
2021/12/22 13:01:45;;;;;;;12.88;5.25;;;20.00;52.20;;;;;;4990003;28;88791;-58
2021/12/22 13:04:31;;;;;;;11.50;4.82;;;20.00;51.10;;;;;;4989266;28;88551;-59
2021/12/22 13:07:02;;;;;;;13.07;5.32;;;20.00;51.00;;;;;;4988325;28;87319;-61
2021/12/22 13:09:30;;;;;;;15.90;5.65;;;19.90;50.80;;;;;;4989875;28;86808;-61
2021/12/22 13:12:11;;;;;;;13.40;5.10;;;19.90;51.80;;;;;;4990208;28;86873;-62
2021/12/22 13:17:26;;;;;;;11.55;5.13;;;19.90;52.00;;;;;;4988128;28;87195;-60
2021/12/22 13:19:55;;;;;;;13.68;5.55;;;19.90;51.50;;;;;;4990560;28;87109;-61
2021/12/22 13:22:23;;;;;;;14.50;5.63;;;19.90;51.20;;;;;;4990913;28;87023;-65
2021/12/22 13:25:17;;;;;;;13.23;5.68;;;19.80;51.00;;;;;;4990616;28;87194;-66